Gaz Unity — HOEJ — position and weather

sailwx.info

Track history (hours):
 
Tides and Currents Weather Stations Pressure Air Temp Water Temp Dewpoint Dewpoint Depression Visibility Wind Speed Wind Dir Waves Ship Positions

Gaz Unity

Last reported at 2014-Nov-18 09:33 UTC. Time now 2014-Nov-22 10:21 UTC.
Position N 35°15' E 016°14'.

Length 228 m; draft 10.9 m.

Type: Ship (hazmat cat C). MMSI: 353956000.

Date/timePositionNaut miles runAvg speedWind from/ knotsBaromVisibWave heightAir tempDewpointWater temp
2014-Nov-18 09:33N 35°15' E 016°14'10 3.5
2014-Nov-18 06:32N 35°13' E 016°02'13 0.3
2014-Nov-16 09:33N 35°18' E 015°47'5 0.9
2014-Nov-16 04:07N 35°20' E 015°42'  
2014-Nov-12 04:25N 36°20' E 014°09'0 0.1
2014-Nov-12 01:32N 36°20' E 014°09'2 0.4
2014-Nov-11 21:25N 36°18' E 014°08'1 0.8
2014-Nov-11 20:21N 36°17' E 014°08'9 2.1
2014-Nov-11 16:09N 36°26' E 014°06'47 5.3
2014-Nov-11 07:18N 35°39' E 014°17'25 1.0
2014-Nov-10 06:14N 35°40' E 014°47'1 0.4
2014-Nov-10 04:30N 35°40' E 014°47'0 0.5
2014-Nov-10 03:34N 35°39' E 014°46'1 0.6
2014-Nov-10 02:19N 35°39' E 014°46'2 1.4
2014-Nov-10 01:09N 35°40' E 014°45'711.1
2014-Nov-10 00:32N 35°47' E 014°45'9 4.6
2014-Nov-09 22:32N 35°56' E 014°43'2 1.9
2014-Nov-09 21:33N 35°55' E 014°42'2 2.2
2014-Nov-09 20:30N 35°55' E 014°39'2 0.8
2014-Nov-09 18:04N 35°57' E 014°39'  
Track history (hours):
 
Tides and Currents Weather Stations Pressure Air Temp Water Temp Dewpoint Dewpoint Depression Visibility Wind Speed Wind Dir Waves Ship Positions

Gaz Unity

Last reported at 2014-Nov-18 09:33 UTC. Time now 2014-Nov-22 10:21 UTC.
Position N 35°15' E 016°14'.

Length 228 m; draft 10.9 m.

Type: Ship (hazmat cat C). MMSI: 353956000.

Date/timePositionNaut miles runAvg speedWind from/ knotsBaromVisibWave heightAir tempDewpointWater temp
2014-Nov-18 09:33N 35°15' E 016°14'10 3.5
2014-Nov-18 06:32N 35°13' E 016°02'13 0.3
2014-Nov-16 09:33N 35°18' E 015°47'5 0.9
2014-Nov-16 04:07N 35°20' E 015°42'  
2014-Nov-12 04:25N 36°20' E 014°09'0 0.1
2014-Nov-12 01:32N 36°20' E 014°09'2 0.4
2014-Nov-11 21:25N 36°18' E 014°08'1 0.8
2014-Nov-11 20:21N 36°17' E 014°08'9 2.1
2014-Nov-11 16:09N 36°26' E 014°06'47 5.3
2014-Nov-11 07:18N 35°39' E 014°17'25 1.0
2014-Nov-10 06:14N 35°40' E 014°47'1 0.4
2014-Nov-10 04:30N 35°40' E 014°47'0 0.5
2014-Nov-10 03:34N 35°39' E 014°46'1 0.6
2014-Nov-10 02:19N 35°39' E 014°46'2 1.4
2014-Nov-10 01:09N 35°40' E 014°45'711.1
2014-Nov-10 00:32N 35°47' E 014°45'9 4.6
2014-Nov-09 22:32N 35°56' E 014°43'2 1.9
2014-Nov-09 21:33N 35°55' E 014°42'2 2.2
2014-Nov-09 20:30N 35°55' E 014°39'2 0.8
2014-Nov-09 18:04N 35°57' E 014°39'  

Dump ship's entire track history